Time;durP1;ratioP1;P1;durP2;ratioP2;P2;SDS_P1;SDS_P2;PMS_P1;PMS_P2;Temp;Humidity;BMP_temperature;BMP_pressure;BME280_temperature;BME280_humidity;BME280_pressure;Samples;Min_cycle;Max_cycle;Signal;HPM_P1;HPM_P2
2021/01/08 00:01:10;;;;;;;10.80;7.23;;;;;;;;;;4408948;32;20292;-55
2021/01/08 00:03:38;;;;;;;12.50;7.97;;;;;;;;;;4414711;32;20251;-55
2021/01/08 00:06:04;;;;;;;14.33;8.33;;;;;;;;;;4415964;32;20617;-56
2021/01/08 00:08:29;;;;;;;9.27;6.77;;;;;;;;;;4410656;32;20251;-58
2021/01/08 00:10:56;;;;;;;13.80;6.50;;;;;;;;;;4417079;32;20653;-56
2021/01/08 00:13:21;;;;;;;9.07;6.10;;;;;;;;;;4401268;32;20264;-55
2021/01/08 00:15:47;;;;;;;9.87;6.27;;;;;;;;;;4407412;32;20735;-55
2021/01/08 00:18:12;;;;;;;6.33;4.97;;;;;;;;;;4406750;32;20684;-55
2021/01/08 00:20:38;;;;;;;7.53;5.93;;;;;;;;;;4409197;32;20800;-55
2021/01/08 00:23:03;;;;;;;10.93;6.43;;;;;;;;;;4404771;32;20200;-54
2021/01/08 00:25:29;;;;;;;12.80;7.93;;;;;;;;;;4412685;32;20292;-55
2021/01/08 00:27:54;;;;;;;10.03;7.23;;;;;;;;;;4409885;32;20358;-56
2021/01/08 00:30:20;;;;;;;12.47;9.33;;;;;;;;;;4416937;32;20338;-57
2021/01/08 00:32:45;;;;;;;20.53;10.37;;;;;;;;;;4412021;32;20320;-56
2021/01/08 00:35:11;;;;;;;18.97;10.33;;;;;;;;;;4412051;32;20557;-57
2021/01/08 00:37:36;;;;;;;15.53;10.77;;;;;;;;;;4414728;32;20705;-58
2021/01/08 00:40:03;;;;;;;14.33;8.97;;;;;;;;;;4415686;32;20311;-56
2021/01/08 00:42:29;;;;;;;15.30;9.97;;;;;;;;;;4408851;32;20374;-57
2021/01/08 00:44:54;;;;;;;18.33;10.00;;;;;;;;;;4415300;32;20285;-57
2021/01/08 00:47:19;;;;;;;13.77;8.97;;;;;;;;;;4397196;32;20753;-57
2021/01/08 00:49:45;;;;;;;13.33;8.57;;;;;;;;;;4409851;32;20271;-56
2021/01/08 00:52:10;;;;;;;16.27;10.60;;;;;;;;;;4402544;32;20389;-56
2021/01/08 00:54:36;;;;;;;26.97;12.57;;;;;;;;;;4406504;32;20316;-57
2021/01/08 00:57:01;;;;;;;14.30;8.30;;;;;;;;;;4401852;32;20350;-56
2021/01/08 00:59:27;;;;;;;11.33;7.93;;;;;;;;;;4410564;32;20306;-56
2021/01/08 01:01:52;;;;;;;19.10;13.67;;;;;;;;;;4407794;32;20355;-56
2021/01/08 01:04:18;;;;;;;12.63;7.70;;;;;;;;;;4401743;32;20277;-55
2021/01/08 01:06:43;;;;;;;5.87;4.43;;;;;;;;;;4403204;32;20217;-56
2021/01/08 01:09:09;;;;;;;5.20;3.90;;;;;;;;;;4404164;32;20669;-55
2021/01/08 01:11:35;;;;;;;7.70;3.57;;;;;;;;;;4416159;32;20260;-56
2021/01/08 01:14:00;;;;;;;6.07;4.37;;;;;;;;;;4395691;32;20590;-56
2021/01/08 01:16:27;;;;;;;7.37;3.93;;;;;;;;;;4401834;32;20630;-56
2021/01/08 01:18:56;;;;;;;6.87;5.20;;;;;;;;;;4405009;32;20229;-55
2021/01/08 01:21:23;;;;;;;7.73;5.60;;;;;;;;;;4412827;32;20246;-55
2021/01/08 01:23:48;;;;;;;14.57;8.33;;;;;;;;;;4408404;32;20321;-56
2021/01/08 01:26:14;;;;;;;13.47;7.07;;;;;;;;;;4409017;32;20280;-55
2021/01/08 01:28:40;;;;;;;19.10;9.87;;;;;;;;;;4414785;32;20702;-56
2021/01/08 01:31:06;;;;;;;25.30;13.90;;;;;;;;;;4413968;32;20209;-57
2021/01/08 01:33:31;;;;;;;19.33;13.77;;;;;;;;;;4400772;32;20257;-57
2021/01/08 01:35:58;;;;;;;23.17;14.13;;;;;;;;;;4405918;32;20270;-56
2021/01/08 01:38:23;;;;;;;23.20;14.50;;;;;;;;;;4413110;32;20247;-57
2021/01/08 01:40:49;;;;;;;19.33;12.30;;;;;;;;;;4414333;32;20340;-55
2021/01/08 01:43:16;;;;;;;16.07;10.20;;;;;;;;;;4404095;32;21070;-55
2021/01/08 01:45:42;;;;;;;13.17;8.63;;;;;;;;;;4402824;32;20242;-54
2021/01/08 01:48:09;;;;;;;13.20;8.33;;;;;;;;;;4404371;32;20339;-56
2021/01/08 01:50:34;;;;;;;12.83;8.93;;;;;;;;;;4401940;32;20399;-55
2021/01/08 01:53:00;;;;;;;15.03;10.13;;;;;;;;;;4414275;32;20382;-55
2021/01/08 01:55:26;;;;;;;11.80;8.40;;;;;;;;;;4407695;32;20234;-55
2021/01/08 01:57:52;;;;;;;10.93;7.47;;;;;;;;;;4401550;32;20393;-55
2021/01/08 02:00:18;;;;;;;11.97;7.47;;;;;;;;;;4409189;32;20312;-56
2021/01/08 02:02:52;;;;;;;14.80;9.27;;;;;;;;;;4408074;32;20313;-55
2021/01/08 02:05:20;;;;;;;10.97;8.13;;;;;;;;;;4415082;32;20584;-55
2021/01/08 02:07:59;;;;;;;16.73;8.47;;;;;;;;;;4413103;32;20214;-55
2021/01/08 02:10:28;;;;;;;13.87;8.43;;;;;;;;;;4413407;32;20283;-55
2021/01/08 02:12:57;;;;;;;12.73;9.13;;;;;;;;;;4409285;32;20612;-56
2021/01/08 02:15:22;;;;;;;15.03;8.50;;;;;;;;;;4408678;32;20230;-56
2021/01/08 02:17:48;;;;;;;11.17;7.87;;;;;;;;;;4410326;32;20385;-57
2021/01/08 02:20:14;;;;;;;14.00;8.90;;;;;;;;;;4413507;32;20209;-55
2021/01/08 02:22:56;;;;;;;15.30;9.00;;;;;;;;;;4407260;32;20693;-55
2021/01/08 02:25:25;;;;;;;14.10;8.40;;;;;;;;;;4411683;32;20213;-55
2021/01/08 02:28:13;;;;;;;14.40;9.23;;;;;;;;;;4412597;32;20233;-56
2021/01/08 02:30:40;;;;;;;13.23;8.67;;;;;;;;;;4411412;32;20209;-55
2021/01/08 02:33:06;;;;;;;13.53;8.87;;;;;;;;;;4416221;32;20520;-55
2021/01/08 02:35:32;;;;;;;14.57;9.30;;;;;;;;;;4416572;32;20299;-55
2021/01/08 02:37:59;;;;;;;15.97;9.07;;;;;;;;;;4417328;32;20200;-55
2021/01/08 02:40:25;;;;;;;21.80;12.20;;;;;;;;;;4415406;32;20387;-55
2021/01/08 02:43:05;;;;;;;15.23;10.67;;;;;;;;;;4417265;32;20267;-55
2021/01/08 02:45:31;;;;;;;24.03;14.03;;;;;;;;;;4417208;32;20311;-56
2021/01/08 02:47:58;;;;;;;21.80;13.10;;;;;;;;;;4417313;32;20288;-56
2021/01/08 02:50:24;;;;;;;11.70;8.00;;;;;;;;;;4416337;32;20205;-56
2021/01/08 02:52:55;;;;;;;11.50;6.83;;;;;;;;;;4416051;32;20312;-56
2021/01/08 02:55:25;;;;;;;12.10;7.37;;;;;;;;;;4410986;32;20407;-55
2021/01/08 02:57:50;;;;;;;13.70;7.20;;;;;;;;;;4410532;32;20284;-55
2021/01/08 03:00:17;;;;;;;12.47;7.13;;;;;;;;;;4405289;32;20258;-57
2021/01/08 03:02:44;;;;;;;12.13;8.50;;;;;;;;;;4407715;32;20656;-57
2021/01/08 03:05:10;;;;;;;11.43;7.50;;;;;;;;;;4417041;32;20324;-57
2021/01/08 03:07:36;;;;;;;15.47;8.97;;;;;;;;;;4411100;32;20730;-57
2021/01/08 03:10:02;;;;;;;17.27;8.63;;;;;;;;;;4416815;32;20224;-56
2021/01/08 03:12:28;;;;;;;13.80;7.90;;;;;;;;;;4415223;32;20658;-55
2021/01/08 03:14:54;;;;;;;22.33;9.90;;;;;;;;;;4405344;32;20233;-55
2021/01/08 03:17:20;;;;;;;22.10;11.90;;;;;;;;;;4416801;32;20983;-55
2021/01/08 03:19:45;;;;;;;23.53;12.33;;;;;;;;;;4416392;32;20201;-56
2021/01/08 03:22:10;;;;;;;15.43;9.87;;;;;;;;;;4415846;32;20260;-56
2021/01/08 03:24:36;;;;;;;15.13;9.80;;;;;;;;;;4417032;32;20752;-57
2021/01/08 03:27:02;;;;;;;9.03;5.63;;;;;;;;;;4406656;32;20585;-54
2021/01/08 03:29:27;;;;;;;8.60;4.63;;;;;;;;;;4416662;32;20635;-57
2021/01/08 03:31:53;;;;;;;12.47;6.20;;;;;;;;;;4415564;32;20217;-56
2021/01/08 03:34:18;;;;;;;9.10;5.60;;;;;;;;;;4416624;32;20205;-56
2021/01/08 03:36:44;;;;;;;10.43;8.53;;;;;;;;;;4416417;32;20333;-56
2021/01/08 03:39:09;;;;;;;12.37;8.13;;;;;;;;;;4416305;32;20314;-56
2021/01/08 03:41:35;;;;;;;9.70;6.60;;;;;;;;;;4416019;32;20406;-56
2021/01/08 03:44:00;;;;;;;6.37;5.60;;;;;;;;;;4408390;32;20286;-56
2021/01/08 03:46:26;;;;;;;9.13;6.17;;;;;;;;;;4416580;32;20425;-57
2021/01/08 03:48:51;;;;;;;8.47;6.23;;;;;;;;;;4416414;32;20216;-55
2021/01/08 03:51:17;;;;;;;9.07;7.07;;;;;;;;;;4415409;32;20309;-57
2021/01/08 03:53:42;;;;;;;8.70;6.17;;;;;;;;;;4416416;32;20631;-56
2021/01/08 03:56:08;;;;;;;7.80;4.70;;;;;;;;;;4415898;32;20284;-57
2021/01/08 03:58:33;;;;;;;10.33;6.07;;;;;;;;;;4415748;32;20248;-56
2021/01/08 04:00:59;;;;;;;14.10;7.57;;;;;;;;;;4415984;32;20243;-56
2021/01/08 04:03:24;;;;;;;11.13;9.43;;;;;;;;;;4407972;32;20326;-57
2021/01/08 04:05:50;;;;;;;10.67;7.80;;;;;;;;;;4416492;32;20619;-57
2021/01/08 04:08:15;;;;;;;10.57;9.00;;;;;;;;;;4414239;32;20209;-57
2021/01/08 04:10:41;;;;;;;10.63;7.70;;;;;;;;;;4416341;32;20449;-56
2021/01/08 04:13:06;;;;;;;15.10;10.57;;;;;;;;;;4413954;32;20284;-55
2021/01/08 04:15:32;;;;;;;16.00;10.03;;;;;;;;;;4416298;32;20587;-55
2021/01/08 04:17:57;;;;;;;17.70;9.47;;;;;;;;;;4415305;32;20682;-54
2021/01/08 04:20:23;;;;;;;16.23;10.73;;;;;;;;;;4410793;32;20237;-54
2021/01/08 04:22:48;;;;;;;23.33;13.40;;;;;;;;;;4415867;32;20273;-54
2021/01/08 04:25:14;;;;;;;20.57;13.27;;;;;;;;;;4415606;32;20217;-55
2021/01/08 04:27:39;;;;;;;24.00;14.13;;;;;;;;;;4415775;32;20802;-55
2021/01/08 04:30:05;;;;;;;20.60;13.47;;;;;;;;;;4416172;32;20213;-55
2021/01/08 04:32:31;;;;;;;22.23;14.53;;;;;;;;;;4416035;32;20291;-54
2021/01/08 04:34:57;;;;;;;29.27;17.60;;;;;;;;;;4415132;32;20216;-55
2021/01/08 04:37:22;;;;;;;30.87;18.73;;;;;;;;;;4416213;32;20272;-55
2021/01/08 04:39:48;;;;;;;26.17;18.83;;;;;;;;;;4419060;32;20578;-55
2021/01/08 04:42:15;;;;;;;30.63;19.53;;;;;;;;;;4412048;32;20436;-55
2021/01/08 04:44:41;;;;;;;39.40;24.23;;;;;;;;;;4411791;32;20411;-55
2021/01/08 04:47:10;;;;;;;34.93;21.27;;;;;;;;;;4412242;32;20274;-55
2021/01/08 04:49:37;;;;;;;24.27;19.20;;;;;;;;;;4419104;32;20302;-54
2021/01/08 04:52:04;;;;;;;25.83;18.40;;;;;;;;;;4418673;32;20650;-55
2021/01/08 04:54:29;;;;;;;25.63;17.63;;;;;;;;;;4417799;32;20217;-55
2021/01/08 04:56:55;;;;;;;21.37;17.20;;;;;;;;;;4418687;32;20272;-56
2021/01/08 04:59:24;;;;;;;28.90;18.90;;;;;;;;;;4412823;32;20350;-55
2021/01/08 05:01:49;;;;;;;31.07;20.27;;;;;;;;;;4418583;32;20267;-55
2021/01/08 05:04:15;;;;;;;23.47;16.73;;;;;;;;;;4418089;32;20280;-55
2021/01/08 05:06:41;;;;;;;25.57;16.07;;;;;;;;;;4418039;32;20314;-55
2021/01/08 05:09:07;;;;;;;25.80;16.50;;;;;;;;;;4418525;32;20284;-54
2021/01/08 05:11:32;;;;;;;18.83;14.97;;;;;;;;;;4418267;32;20324;-57
2021/01/08 05:14:03;;;;;;;16.77;12.53;;;;;;;;;;4410265;32;20692;-55
2021/01/08 05:16:32;;;;;;;12.87;9.00;;;;;;;;;;4409739;32;20333;-55
2021/01/08 05:19:00;;;;;;;14.30;10.70;;;;;;;;;;4415795;32;20689;-55
2021/01/08 05:21:27;;;;;;;27.80;18.87;;;;;;;;;;4416383;32;20582;-56
2021/01/08 05:23:54;;;;;;;36.13;22.63;;;;;;;;;;4411582;32;20315;-55
2021/01/08 05:26:20;;;;;;;42.60;26.87;;;;;;;;;;4417750;32;20320;-55
2021/01/08 05:28:57;;;;;;;42.93;30.67;;;;;;;;;;4408604;32;20364;-56
2021/01/08 05:31:24;;;;;;;50.90;33.13;;;;;;;;;;4417023;32;20330;-56
2021/01/08 05:33:51;;;;;;;53.87;33.50;;;;;;;;;;4417990;32;20232;-55
2021/01/08 05:36:17;;;;;;;63.00;37.63;;;;;;;;;;4417953;32;20247;-55
2021/01/08 05:39:05;;;;;;;56.40;40.20;;;;;;;;;;4412573;32;20225;-55
2021/01/08 05:41:32;;;;;;;58.53;35.93;;;;;;;;;;4415126;32;20205;-54
2021/01/08 05:43:59;;;;;;;49.37;35.97;;;;;;;;;;4408272;32;20252;-55
2021/01/08 05:46:28;;;;;;;55.80;34.83;;;;;;;;;;4417527;32;20209;-56
2021/01/08 05:48:58;;;;;;;45.87;33.73;;;;;;;;;;4412527;32;20279;-55
2021/01/08 05:51:27;;;;;;;56.67;38.90;;;;;;;;;;4411554;32;20354;-55
2021/01/08 05:53:53;;;;;;;73.50;46.27;;;;;;;;;;4416259;32;20294;-56
2021/01/08 05:56:22;;;;;;;73.57;47.97;;;;;;;;;;4408022;32;20340;-55
2021/01/08 05:58:49;;;;;;;79.90;50.47;;;;;;;;;;4411462;32;20259;-54
2021/01/08 06:01:16;;;;;;;76.03;47.17;;;;;;;;;;4410520;32;20329;-56
2021/01/08 06:03:43;;;;;;;73.43;44.47;;;;;;;;;;4417572;32;20236;-56
2021/01/08 06:06:10;;;;;;;83.10;52.47;;;;;;;;;;4417650;32;20345;-55
2021/01/08 06:08:43;;;;;;;89.00;49.57;;;;;;;;;;4417158;32;20282;-56
2021/01/08 06:11:20;;;;;;;78.00;47.73;;;;;;;;;;4416780;32;20671;-56
2021/01/08 06:13:52;;;;;;;78.93;46.10;;;;;;;;;;4416540;32;20297;-56
2021/01/08 06:16:19;;;;;;;68.03;39.77;;;;;;;;;;4415847;32;20512;-55
2021/01/08 06:18:47;;;;;;;63.93;41.60;;;;;;;;;;4415764;32;20225;-56
2021/01/08 06:21:12;;;;;;;55.97;35.57;;;;;;;;;;4416965;32;20296;-55
2021/01/08 06:23:46;;;;;;;47.03;30.23;;;;;;;;;;4415779;32;20285;-55
2021/01/08 06:26:16;;;;;;;37.10;26.40;;;;;;;;;;4417560;32;20297;-57
2021/01/08 06:28:50;;;;;;;38.23;24.77;;;;;;;;;;4417062;32;20675;-56
2021/01/08 06:31:21;;;;;;;43.83;28.27;;;;;;;;;;4417326;32;20225;-56
2021/01/08 06:34:00;;;;;;;61.57;36.40;;;;;;;;;;4416114;32;20224;-54
2021/01/08 06:36:33;;;;;;;66.63;38.07;;;;;;;;;;4415482;32;20295;-56
2021/01/08 06:39:09;;;;;;;55.17;37.63;;;;;;;;;;4406951;32;20222;-55
2021/01/08 06:41:34;;;;;;;74.27;53.17;;;;;;;;;;4416841;32;20272;-57
2021/01/08 06:44:02;;;;;;;80.30;56.73;;;;;;;;;;4416645;32;20291;-56
2021/01/08 06:46:34;;;;;;;88.57;56.13;;;;;;;;;;4416033;32;20351;-56
2021/01/08 06:49:11;;;;;;;85.13;57.47;;;;;;;;;;4410480;32;20403;-55
2021/01/08 06:51:40;;;;;;;83.80;54.47;;;;;;;;;;4408915;32;20730;-55
2021/01/08 06:54:08;;;;;;;87.57;59.90;;;;;;;;;;4412094;32;20369;-56
2021/01/08 06:56:45;;;;;;;93.80;62.37;;;;;;;;;;4408239;32;20311;-57
2021/01/08 06:59:16;;;;;;;122.37;83.37;;;;;;;;;;4411548;32;20641;-57
2021/01/08 07:01:54;;;;;;;123.50;79.17;;;;;;;;;;4411029;32;20249;-56
2021/01/08 07:04:23;;;;;;;107.30;72.10;;;;;;;;;;4414170;32;20794;-59
2021/01/08 07:06:49;;;;;;;126.90;78.07;;;;;;;;;;4417267;32;20216;-56
2021/01/08 07:09:15;;;;;;;98.10;61.90;;;;;;;;;;4413074;32;20678;-55
2021/01/08 07:11:41;;;;;;;94.57;59.07;;;;;;;;;;4416126;32;20422;-57
2021/01/08 07:14:21;;;;;;;95.53;62.70;;;;;;;;;;4413596;32;20369;-55
2021/01/08 07:16:47;;;;;;;87.27;60.40;;;;;;;;;;4414633;32;20333;-55
2021/01/08 07:19:15;;;;;;;77.80;50.67;;;;;;;;;;4414103;32;20401;-56
2021/01/08 07:21:52;;;;;;;72.00;48.83;;;;;;;;;;4416472;32;20217;-56
2021/01/08 07:24:24;;;;;;;77.03;53.53;;;;;;;;;;4416743;32;20347;-55
2021/01/08 07:26:50;;;;;;;74.77;50.43;;;;;;;;;;4417194;32;20370;-55
2021/01/08 07:29:27;;;;;;;59.53;41.43;;;;;;;;;;4416705;32;20284;-55
2021/01/08 07:31:56;;;;;;;71.87;48.43;;;;;;;;;;4414157;32;20244;-55
2021/01/08 07:34:36;;;;;;;70.17;45.83;;;;;;;;;;4410971;32;20299;-56
2021/01/08 07:37:02;;;;;;;68.90;44.47;;;;;;;;;;4409692;32;20251;-56
2021/01/08 07:39:41;;;;;;;71.50;47.87;;;;;;;;;;4415562;32;20704;-57
2021/01/08 07:42:35;;;;;;;66.53;47.43;;;;;;;;;;4410902;32;20278;-55
2021/01/08 07:45:01;;;;;;;75.53;51.97;;;;;;;;;;4409908;32;20296;-55
2021/01/08 07:47:28;;;;;;;81.60;55.20;;;;;;;;;;4414191;32;20297;-56
2021/01/08 07:50:05;;;;;;;98.00;61.97;;;;;;;;;;4414772;32;20264;-56
2021/01/08 07:52:34;;;;;;;90.60;61.83;;;;;;;;;;4415296;32;20367;-55
2021/01/08 07:55:00;;;;;;;94.87;62.47;;;;;;;;;;4415654;32;20295;-55
2021/01/08 07:57:25;;;;;;;90.87;59.23;;;;;;;;;;4408463;32;20701;-57
2021/01/08 07:59:51;;;;;;;88.27;61.07;;;;;;;;;;4414199;32;20630;-56
2021/01/08 08:02:17;;;;;;;99.00;65.77;;;;;;;;;;4405757;32;20309;-56
2021/01/08 08:04:43;;;;;;;109.73;77.20;;;;;;;;;;4416572;32;20291;-56
2021/01/08 08:07:12;;;;;;;90.17;64.50;;;;;;;;;;4416024;32;20250;-56
2021/01/08 08:09:37;;;;;;;108.37;64.97;;;;;;;;;;4417026;32;20229;-56
2021/01/08 08:12:11;;;;;;;91.67;63.80;;;;;;;;;;4415704;32;20303;-56
2021/01/08 08:14:36;;;;;;;84.33;56.87;;;;;;;;;;4419690;32;20236;-56
2021/01/08 08:17:03;;;;;;;89.27;57.50;;;;;;;;;;4414097;32;20611;-56
2021/01/08 08:19:33;;;;;;;86.37;62.13;;;;;;;;;;4411402;32;20290;-56
2021/01/08 08:21:59;;;;;;;100.57;65.63;;;;;;;;;;4416725;32;20567;-56
2021/01/08 08:24:27;;;;;;;79.00;54.23;;;;;;;;;;4405174;32;20342;-56
2021/01/08 08:26:53;;;;;;;242.43;148.03;;;;;;;;;;4411637;32;20263;-55
2021/01/08 08:29:18;;;;;;;136.27;82.47;;;;;;;;;;4411884;32;20284;-55
2021/01/08 08:31:46;;;;;;;95.40;64.00;;;;;;;;;;4418945;32;20288;-57
2021/01/08 08:34:15;;;;;;;112.93;73.50;;;;;;;;;;4412029;32;20248;-56
2021/01/08 08:36:42;;;;;;;99.87;66.43;;;;;;;;;;4419235;32;20229;-55
2021/01/08 08:39:14;;;;;;;84.63;58.10;;;;;;;;;;4419232;32;20218;-56
2021/01/08 08:41:48;;;;;;;101.00;68.57;;;;;;;;;;4415615;32;20296;-56
2021/01/08 08:44:15;;;;;;;144.60;86.43;;;;;;;;;;4410757;32;20345;-56
2021/01/08 08:46:48;;;;;;;108.40;66.67;;;;;;;;;;4415015;32;20279;-56
2021/01/08 08:49:19;;;;;;;82.63;55.37;;;;;;;;;;4417279;32;20268;-56
2021/01/08 08:51:52;;;;;;;106.63;70.83;;;;;;;;;;4416123;32;20243;-57
2021/01/08 08:54:19;;;;;;;86.23;59.87;;;;;;;;;;4414952;32;20281;-56
2021/01/08 08:57:00;;;;;;;84.37;58.07;;;;;;;;;;4417493;32;20236;-55
2021/01/08 08:59:39;;;;;;;75.63;52.00;;;;;;;;;;4410291;32;20229;-55
2021/01/08 09:02:09;;;;;;;78.70;56.83;;;;;;;;;;4417359;32;20220;-60
2021/01/08 09:04:35;;;;;;;44.27;31.80;;;;;;;;;;4418434;32;20217;-54
2021/01/08 09:07:11;;;;;;;51.20;34.43;;;;;;;;;;4418467;32;20643;-55
2021/01/08 09:09:44;;;;;;;43.63;29.07;;;;;;;;;;4413242;32;20232;-55
2021/01/08 09:12:23;;;;;;;42.83;29.07;;;;;;;;;;4418590;32;20267;-54
2021/01/08 09:14:49;;;;;;;41.93;27.10;;;;;;;;;;4414273;32;20342;-55
2021/01/08 09:17:21;;;;;;;36.20;25.10;;;;;;;;;;4416031;32;20311;-55
2021/01/08 09:19:52;;;;;;;48.63;31.33;;;;;;;;;;4409015;32;20264;-54
2021/01/08 09:22:18;;;;;;;38.57;25.40;;;;;;;;;;4408495;32;20244;-55
2021/01/08 09:24:47;;;;;;;36.63;26.67;;;;;;;;;;4415486;32;20919;-55
2021/01/08 09:27:12;;;;;;;42.47;24.70;;;;;;;;;;4418440;32;20660;-56
2021/01/08 09:29:39;;;;;;;43.27;32.40;;;;;;;;;;4418463;32;20225;-56
2021/01/08 09:32:05;;;;;;;64.10;42.87;;;;;;;;;;4418358;32;20567;-56
2021/01/08 09:34:32;;;;;;;65.90;41.20;;;;;;;;;;4410270;32;20327;-55
2021/01/08 09:36:59;;;;;;;49.07;31.80;;;;;;;;;;4410510;32;20787;-55
2021/01/08 09:39:29;;;;;;;55.37;37.07;;;;;;;;;;4417611;32;20320;-56
2021/01/08 09:41:59;;;;;;;201.33;117.20;;;;;;;;;;4415688;32;20222;-55
2021/01/08 09:44:34;;;;;;;55.77;35.00;;;;;;;;;;4411626;32;20709;-56
2021/01/08 09:47:03;;;;;;;75.10;44.67;;;;;;;;;;4418319;32;20250;-56
2021/01/08 09:49:52;;;;;;;87.07;50.90;;;;;;;;;;4417624;32;20229;-55
2021/01/08 09:52:27;;;;;;;113.20;66.13;;;;;;;;;;4418030;32;20650;-55
2021/01/08 09:54:52;;;;;;;58.03;36.00;;;;;;;;;;4417385;32;20299;-55
2021/01/08 09:57:24;;;;;;;45.80;29.93;;;;;;;;;;4417032;32;20221;-54
2021/01/08 09:59:57;;;;;;;31.97;20.63;;;;;;;;;;4413473;32;20233;-54
2021/01/08 10:02:52;;;;;;;40.27;28.50;;;;;;;;;;4418114;32;20221;-55
2021/01/08 10:05:20;;;;;;;49.87;30.73;;;;;;;;;;4402091;32;20228;-54
2021/01/08 10:07:47;;;;;;;55.23;32.33;;;;;;;;;;4409321;32;20835;-55
2021/01/08 10:10:27;;;;;;;68.63;39.40;;;;;;;;;;4409884;32;20378;-54
2021/01/08 10:12:55;;;;;;;67.43;41.57;;;;;;;;;;4399736;32;20265;-55
2021/01/08 10:15:37;;;;;;;69.90;39.67;;;;;;;;;;4407377;32;20330;-56
2021/01/08 10:18:11;;;;;;;101.57;56.43;;;;;;;;;;4411818;32;20332;-55
2021/01/08 10:20:47;;;;;;;39.00;22.33;;;;;;;;;;4413519;32;20642;-55
2021/01/08 10:23:16;;;;;;;38.20;22.97;;;;;;;;;;4416874;32;20681;-56
2021/01/08 10:25:41;;;;;;;22.23;13.33;;;;;;;;;;4406465;32;20372;-55
2021/01/08 10:28:23;;;;;;;26.93;16.10;;;;;;;;;;4414010;32;20713;-56
2021/01/08 10:30:51;;;;;;;29.13;13.63;;;;;;;;;;4403209;32;20371;-54
2021/01/08 10:33:17;;;;;;;53.60;24.80;;;;;;;;;;4414862;32;20269;-55
2021/01/08 10:35:48;;;;;;;24.57;12.23;;;;;;;;;;4411547;32;20247;-55
2021/01/08 10:38:14;;;;;;;48.97;19.53;;;;;;;;;;4414276;32;20292;-55
2021/01/08 10:40:40;;;;;;;24.60;12.27;;;;;;;;;;4404829;32;20726;-55
2021/01/08 10:43:05;;;;;;;78.63;32.53;;;;;;;;;;4411217;32;20750;-57
2021/01/08 10:45:31;;;;;;;51.30;23.30;;;;;;;;;;4414522;32;20317;-56
2021/01/08 10:47:56;;;;;;;17.97;10.57;;;;;;;;;;4414520;32;20702;-57
2021/01/08 10:50:22;;;;;;;56.80;20.57;;;;;;;;;;4409868;32;20535;-56
2021/01/08 10:52:47;;;;;;;85.53;30.70;;;;;;;;;;4413164;32;20342;-61
2021/01/08 10:55:13;;;;;;;19.20;9.77;;;;;;;;;;4402102;32;20253;-56
2021/01/08 10:57:39;;;;;;;234.70;81.03;;;;;;;;;;4412610;32;20338;-56
2021/01/08 11:00:09;;;;;;;34.90;14.30;;;;;;;;;;4411579;32;20383;-56
2021/01/08 11:02:36;;;;;;;26.23;11.47;;;;;;;;;;4413785;32;20559;-55
2021/01/08 11:05:05;;;;;;;13.83;6.47;;;;;;;;;;4409477;32;20646;-56
2021/01/08 11:07:34;;;;;;;16.47;8.03;;;;;;;;;;4414854;32;20258;-55
2021/01/08 11:10:01;;;;;;;18.70;8.80;;;;;;;;;;4407609;32;20296;-55
2021/01/08 11:12:27;;;;;;;27.97;12.40;;;;;;;;;;4404290;32;20316;-57
2021/01/08 11:14:54;;;;;;;19.13;7.03;;;;;;;;;;4392526;32;20699;-59
2021/01/08 11:17:20;;;;;;;49.37;23.00;;;;;;;;;;4414603;32;20690;-57
2021/01/08 11:19:45;;;;;;;65.73;32.40;;;;;;;;;;4413408;32;20268;-57
2021/01/08 11:22:11;;;;;;;18.33;9.37;;;;;;;;;;4380039;32;20356;-56
2021/01/08 11:24:37;;;;;;;25.27;11.43;;;;;;;;;;4389805;32;20324;-57
2021/01/08 11:27:05;;;;;;;8.70;5.10;;;;;;;;;;4396651;32;20411;-55
2021/01/08 11:29:30;;;;;;;11.03;3.47;;;;;;;;;;4388310;32;20316;-55
2021/01/08 11:31:56;;;;;;;14.93;5.27;;;;;;;;;;4389700;32;20615;-56
2021/01/08 11:34:22;;;;;;;10.50;6.67;;;;;;;;;;4396136;32;20228;-54
2021/01/08 11:36:47;;;;;;;12.40;5.70;;;;;;;;;;4390520;32;21151;-56
2021/01/08 11:39:14;;;;;;;10.77;4.40;;;;;;;;;;4391056;32;20711;-55
2021/01/08 11:41:40;;;;;;;14.03;4.00;;;;;;;;;;4385349;32;20716;-57
2021/01/08 11:44:06;;;;;;;9.53;3.67;;;;;;;;;;4402663;32;20332;-56
2021/01/08 11:46:32;;;;;;;8.67;3.60;;;;;;;;;;4403277;32;20256;-56
2021/01/08 11:48:58;;;;;;;13.63;5.40;;;;;;;;;;4410606;32;20730;-57
2021/01/08 11:51:24;;;;;;;12.60;3.43;;;;;;;;;;4404824;32;21935;-57
2021/01/08 11:53:52;;;;;;;12.83;4.17;;;;;;;;;;4407818;32;20582;-56
2021/01/08 11:56:25;;;;;;;16.93;5.20;;;;;;;;;;4414504;32;20220;-56
2021/01/08 11:58:51;;;;;;;8.73;4.37;;;;;;;;;;4411650;32;20315;-57
2021/01/08 12:01:16;;;;;;;14.23;4.13;;;;;;;;;;4416710;32;20209;-56
2021/01/08 12:03:42;;;;;;;13.10;5.27;;;;;;;;;;4412200;32;20555;-56
2021/01/08 12:06:07;;;;;;;6.00;3.30;;;;;;;;;;4413670;32;20360;-56
2021/01/08 12:08:33;;;;;;;21.13;7.60;;;;;;;;;;4409800;32;20640;-56
2021/01/08 12:11:00;;;;;;;11.00;5.27;;;;;;;;;;4406362;32;20700;-57
2021/01/08 12:13:26;;;;;;;9.27;3.53;;;;;;;;;;4411802;32;20356;-56
2021/01/08 12:15:52;;;;;;;10.20;4.57;;;;;;;;;;4413611;32;20286;-57
2021/01/08 12:18:18;;;;;;;6.40;2.40;;;;;;;;;;4414770;32;20245;-56
2021/01/08 12:20:44;;;;;;;13.43;5.13;;;;;;;;;;4408484;32;20381;-58
2021/01/08 12:23:10;;;;;;;13.60;5.47;;;;;;;;;;4411182;32;20338;-56
2021/01/08 12:25:37;;;;;;;5.70;3.87;;;;;;;;;;4395263;32;20217;-58
2021/01/08 12:28:07;;;;;;;12.53;5.33;;;;;;;;;;4391283;32;21985;-57
2021/01/08 12:30:33;;;;;;;12.90;5.13;;;;;;;;;;4396663;32;20265;-57
2021/01/08 12:33:00;;;;;;;10.70;3.53;;;;;;;;;;4391637;32;20370;-56
2021/01/08 12:35:26;;;;;;;18.10;7.03;;;;;;;;;;4413132;32;20240;-56
2021/01/08 12:37:52;;;;;;;39.50;12.17;;;;;;;;;;4415667;32;20255;-56
2021/01/08 12:40:18;;;;;;;26.67;12.43;;;;;;;;;;4417742;32;20225;-56
2021/01/08 12:42:46;;;;;;;32.70;14.93;;;;;;;;;;4415121;32;20232;-56
2021/01/08 12:45:12;;;;;;;27.47;12.13;;;;;;;;;;4405734;32;20237;-55
2021/01/08 12:47:37;;;;;;;63.30;28.47;;;;;;;;;;4412945;32;20594;-55
2021/01/08 12:50:06;;;;;;;43.73;20.77;;;;;;;;;;4417109;32;20216;-55
2021/01/08 12:52:32;;;;;;;62.17;27.53;;;;;;;;;;4415755;32;20681;-56
2021/01/08 12:54:57;;;;;;;22.47;9.70;;;;;;;;;;4414353;32;20253;-56
2021/01/08 12:57:23;;;;;;;41.77;18.03;;;;;;;;;;4406783;32;20305;-57
2021/01/08 12:59:49;;;;;;;70.80;30.03;;;;;;;;;;4415057;32;20264;-57
2021/01/08 13:02:14;;;;;;;88.53;33.67;;;;;;;;;;4415180;32;20390;-56
2021/01/08 13:04:40;;;;;;;28.07;11.70;;;;;;;;;;4413719;32;20428;-57
2021/01/08 13:07:06;;;;;;;23.90;11.13;;;;;;;;;;4417744;32;20691;-56
2021/01/08 13:09:32;;;;;;;33.73;12.67;;;;;;;;;;4408037;32;20332;-56
2021/01/08 13:11:57;;;;;;;34.77;14.13;;;;;;;;;;4413115;32;20296;-56
2021/01/08 13:14:23;;;;;;;36.33;11.87;;;;;;;;;;4409501;32;20606;-56
2021/01/08 13:16:55;;;;;;;26.63;10.63;;;;;;;;;;4416140;32;20329;-56
2021/01/08 13:19:21;;;;;;;22.63;7.30;;;;;;;;;;4408945;32;20698;-57
2021/01/08 13:21:51;;;;;;;19.20;8.97;;;;;;;;;;4406199;32;20334;-56
2021/01/08 13:24:17;;;;;;;40.07;17.40;;;;;;;;;;4412682;32;20308;-57
2021/01/08 13:26:42;;;;;;;23.90;8.83;;;;;;;;;;4418239;32;20264;-56
2021/01/08 13:29:08;;;;;;;58.33;20.27;;;;;;;;;;4414015;32;20360;-56
2021/01/08 13:31:34;;;;;;;15.67;4.87;;;;;;;;;;4416937;32;20319;-56
2021/01/08 13:34:00;;;;;;;79.83;25.70;;;;;;;;;;4412633;32;20351;-56
2021/01/08 13:36:26;;;;;;;38.13;12.53;;;;;;;;;;4416616;32;20316;-58
2021/01/08 13:38:53;;;;;;;28.50;11.83;;;;;;;;;;4409741;32;20666;-56
2021/01/08 13:41:19;;;;;;;44.70;16.53;;;;;;;;;;4410825;32;20331;-57
2021/01/08 13:43:45;;;;;;;34.60;11.87;;;;;;;;;;4414128;32;20248;-56
2021/01/08 13:46:11;;;;;;;24.23;7.93;;;;;;;;;;4416020;32;20327;-56
2021/01/08 13:48:37;;;;;;;53.67;19.50;;;;;;;;;;4418008;32;20255;-57
2021/01/08 13:51:03;;;;;;;27.93;10.27;;;;;;;;;;4409628;32;20646;-57
2021/01/08 13:53:28;;;;;;;28.20;9.50;;;;;;;;;;4415564;32;20801;-59
2021/01/08 13:55:54;;;;;;;34.03;12.20;;;;;;;;;;4413124;32;20602;-57
2021/01/08 13:58:19;;;;;;;63.33;21.17;;;;;;;;;;4415905;32;20379;-56
2021/01/08 14:00:45;;;;;;;46.40;15.73;;;;;;;;;;4416464;32;20658;-57
2021/01/08 14:03:12;;;;;;;24.33;10.50;;;;;;;;;;4405951;32;20358;-57
2021/01/08 14:05:40;;;;;;;20.60;9.87;;;;;;;;;;4417731;32;20324;-56
2021/01/08 14:08:06;;;;;;;19.50;8.03;;;;;;;;;;4408389;32;20285;-58
2021/01/08 14:10:31;;;;;;;49.47;16.27;;;;;;;;;;4413622;32;20684;-57
2021/01/08 14:12:57;;;;;;;17.90;8.40;;;;;;;;;;4404899;32;20339;-58
2021/01/08 14:15:23;;;;;;;33.70;12.90;;;;;;;;;;4416022;32;20311;-56
2021/01/08 14:17:48;;;;;;;18.77;8.73;;;;;;;;;;4405223;32;20332;-57
2021/01/08 14:20:14;;;;;;;27.13;10.23;;;;;;;;;;4414803;32;20256;-57
2021/01/08 14:22:43;;;;;;;35.07;14.70;;;;;;;;;;4412299;32;20338;-57
2021/01/08 14:25:10;;;;;;;40.30;14.57;;;;;;;;;;4415677;32;20692;-56